sensor_id;sensor_type;location;lat;lon;timestamp;temperature;humidity
1025;DHT22;501;48.214;11.350;2023-11-21T00:00:10;7.60;67.10
1025;DHT22;501;48.214;11.350;2023-11-21T00:02:38;7.60;66.90
1025;DHT22;501;48.214;11.350;2023-11-21T00:05:11;7.60;66.90
1025;DHT22;501;48.214;11.350;2023-11-21T00:07:40;7.60;67.00
1025;DHT22;501;48.214;11.350;2023-11-21T00:10:06;7.60;67.70
1025;DHT22;501;48.214;11.350;2023-11-21T00:12:32;7.60;66.00
1025;DHT22;501;48.214;11.350;2023-11-21T00:14:58;7.50;65.20
1025;DHT22;501;48.214;11.350;2023-11-21T00:17:24;7.60;66.60
1025;DHT22;501;48.214;11.350;2023-11-21T00:19:50;7.60;67.30
1025;DHT22;501;48.214;11.350;2023-11-21T00:22:18;7.60;67.40
1025;DHT22;501;48.214;11.350;2023-11-21T00:24:43;7.60;67.60
1025;DHT22;501;48.214;11.350;2023-11-21T00:27:09;7.60;68.30
1025;DHT22;501;48.214;11.350;2023-11-21T00:29:35;7.70;67.20
1025;DHT22;501;48.214;11.350;2023-11-21T00:32:01;7.70;67.40
1025;DHT22;501;48.214;11.350;2023-11-21T00:34:27;7.70;67.50
1025;DHT22;501;48.214;11.350;2023-11-21T00:36:52;7.70;67.10
1025;DHT22;501;48.214;11.350;2023-11-21T00:39:18;7.70;65.70
1025;DHT22;501;48.214;11.350;2023-11-21T00:41:43;7.70;66.20
1025;DHT22;501;48.214;11.350;2023-11-21T00:44:10;7.80;65.80
1025;DHT22;501;48.214;11.350;2023-11-21T00:46:36;7.80;63.50
1025;DHT22;501;48.214;11.350;2023-11-21T00:49:02;7.80;63.00
1025;DHT22;501;48.214;11.350;2023-11-21T00:51:29;7.80;62.90
1025;DHT22;501;48.214;11.350;2023-11-21T00:53:55;7.80;63.10
1025;DHT22;501;48.214;11.350;2023-11-21T00:56:21;7.80;63.00
1025;DHT22;501;48.214;11.350;2023-11-21T00:58:47;7.80;62.30
1025;DHT22;501;48.214;11.350;2023-11-21T01:01:15;7.80;62.70
1025;DHT22;501;48.214;11.350;2023-11-21T01:03:41;7.80;62.20
1025;DHT22;501;48.214;11.350;2023-11-21T01:06:07;7.80;62.40
1025;DHT22;501;48.214;11.350;2023-11-21T01:08:34;7.90;62.30
1025;DHT22;501;48.214;11.350;2023-11-21T01:11:01;7.80;61.70
1025;DHT22;501;48.214;11.350;2023-11-21T01:13:27;7.80;61.70
1025;DHT22;501;48.214;11.350;2023-11-21T01:15:53;7.80;62.10
1025;DHT22;501;48.214;11.350;2023-11-21T01:18:19;7.90;62.90
1025;DHT22;501;48.214;11.350;2023-11-21T01:20:45;7.90;62.80
1025;DHT22;501;48.214;11.350;2023-11-21T01:23:15;7.90;63.00
1025;DHT22;501;48.214;11.350;2023-11-21T01:25:41;7.90;62.60
1025;DHT22;501;48.214;11.350;2023-11-21T01:28:06;7.90;62.10
1025;DHT22;501;48.214;11.350;2023-11-21T01:30:32;7.90;62.50
1025;DHT22;501;48.214;11.350;2023-11-21T01:32:58;7.90;62.40
1025;DHT22;501;48.214;11.350;2023-11-21T01:35:24;7.90;63.10
1025;DHT22;501;48.214;11.350;2023-11-21T01:37:50;7.90;63.20
1025;DHT22;501;48.214;11.350;2023-11-21T01:40:16;7.90;63.20
1025;DHT22;501;48.214;11.350;2023-11-21T01:42:42;7.90;63.00
1025;DHT22;501;48.214;11.350;2023-11-21T01:45:09;7.90;63.20
1025;DHT22;501;48.214;11.350;2023-11-21T01:47:36;7.90;63.60
1025;DHT22;501;48.214;11.350;2023-11-21T01:50:03;7.90;63.50
1025;DHT22;501;48.214;11.350;2023-11-21T01:52:31;7.90;63.20
1025;DHT22;501;48.214;11.350;2023-11-21T01:54:59;7.90;63.20
1025;DHT22;501;48.214;11.350;2023-11-21T01:57:24;7.90;64.10
1025;DHT22;501;48.214;11.350;2023-11-21T01:59:52;7.90;63.70
1025;DHT22;501;48.214;11.350;2023-11-21T02:02:19;7.80;63.40
1025;DHT22;501;48.214;11.350;2023-11-21T02:04:45;7.80;63.10
1025;DHT22;501;48.214;11.350;2023-11-21T02:07:10;7.80;63.00
1025;DHT22;501;48.214;11.350;2023-11-21T02:09:36;7.80;61.80
1025;DHT22;501;48.214;11.350;2023-11-21T02:12:04;7.80;63.20
1025;DHT22;501;48.214;11.350;2023-11-21T02:14:30;7.70;64.90
1025;DHT22;501;48.214;11.350;2023-11-21T02:16:57;7.70;63.60
1025;DHT22;501;48.214;11.350;2023-11-21T02:19:23;7.70;63.70
1025;DHT22;501;48.214;11.350;2023-11-21T02:21:51;7.60;64.90
1025;DHT22;501;48.214;11.350;2023-11-21T02:24:26;7.60;66.60
1025;DHT22;501;48.214;11.350;2023-11-21T02:26:52;7.60;68.40
1025;DHT22;501;48.214;11.350;2023-11-21T02:29:19;7.60;69.50
1025;DHT22;501;48.214;11.350;2023-11-21T02:31:47;7.60;69.50
1025;DHT22;501;48.214;11.350;2023-11-21T02:34:17;7.50;69.30
1025;DHT22;501;48.214;11.350;2023-11-21T02:36:44;7.50;69.00
1025;DHT22;501;48.214;11.350;2023-11-21T02:39:13;7.50;70.20
1025;DHT22;501;48.214;11.350;2023-11-21T02:41:38;7.50;70.40
1025;DHT22;501;48.214;11.350;2023-11-21T02:44:05;7.50;70.20
1025;DHT22;501;48.214;11.350;2023-11-21T02:46:34;7.60;70.20
1025;DHT22;501;48.214;11.350;2023-11-21T02:49:04;7.50;70.40
1025;DHT22;501;48.214;11.350;2023-11-21T02:51:32;7.50;70.00
1025;DHT22;501;48.214;11.350;2023-11-21T02:53:58;7.50;69.80
1025;DHT22;501;48.214;11.350;2023-11-21T02:56:26;7.60;70.00
1025;DHT22;501;48.214;11.350;2023-11-21T02:58:52;7.60;69.30
1025;DHT22;501;48.214;11.350;2023-11-21T03:01:18;7.60;69.30
1025;DHT22;501;48.214;11.350;2023-11-21T03:03:44;7.60;69.40
1025;DHT22;501;48.214;11.350;2023-11-21T03:06:09;7.70;69.40
1025;DHT22;501;48.214;11.350;2023-11-21T03:08:35;7.70;69.20
1025;DHT22;501;48.214;11.350;2023-11-21T03:11:01;7.70;68.70
1025;DHT22;501;48.214;11.350;2023-11-21T03:13:29;7.70;68.00
1025;DHT22;501;48.214;11.350;2023-11-21T03:15:54;7.70;68.30
1025;DHT22;501;48.214;11.350;2023-11-21T03:18:21;7.70;67.70
1025;DHT22;501;48.214;11.350;2023-11-21T03:20:47;7.80;67.50
1025;DHT22;501;48.214;11.350;2023-11-21T03:23:13;7.80;65.90
1025;DHT22;501;48.214;11.350;2023-11-21T03:25:39;7.80;66.60
1025;DHT22;501;48.214;11.350;2023-11-21T03:28:04;7.80;67.00
1025;DHT22;501;48.214;11.350;2023-11-21T03:30:30;7.80;66.70
1025;DHT22;501;48.214;11.350;2023-11-21T03:32:56;7.80;66.10
1025;DHT22;501;48.214;11.350;2023-11-21T03:35:22;7.80;66.10
1025;DHT22;501;48.214;11.350;2023-11-21T03:37:48;7.80;65.50
1025;DHT22;501;48.214;11.350;2023-11-21T03:40:14;7.80;65.30
1025;DHT22;501;48.214;11.350;2023-11-21T03:42:40;7.80;65.30
1025;DHT22;501;48.214;11.350;2023-11-21T03:45:06;7.90;66.30
1025;DHT22;501;48.214;11.350;2023-11-21T03:47:32;7.80;65.00
1025;DHT22;501;48.214;11.350;2023-11-21T03:49:58;7.80;65.10
1025;DHT22;501;48.214;11.350;2023-11-21T03:52:24;7.80;64.90
1025;DHT22;501;48.214;11.350;2023-11-21T03:54:50;7.80;64.90
1025;DHT22;501;48.214;11.350;2023-11-21T03:57:15;7.80;64.50
1025;DHT22;501;48.214;11.350;2023-11-21T03:59:42;7.80;64.20
1025;DHT22;501;48.214;11.350;2023-11-21T04:02:08;7.80;64.70
1025;DHT22;501;48.214;11.350;2023-11-21T04:04:35;7.80;64.90
1025;DHT22;501;48.214;11.350;2023-11-21T04:07:00;7.80;64.90
1025;DHT22;501;48.214;11.350;2023-11-21T04:09:26;7.80;64.50
1025;DHT22;501;48.214;11.350;2023-11-21T04:11:52;7.70;64.20
1025;DHT22;501;48.214;11.350;2023-11-21T04:14:18;7.70;65.00
1025;DHT22;501;48.214;11.350;2023-11-21T04:16:44;7.70;65.00
1025;DHT22;501;48.214;11.350;2023-11-21T04:19:10;7.70;65.80
1025;DHT22;501;48.214;11.350;2023-11-21T04:21:36;7.70;65.50
1025;DHT22;501;48.214;11.350;2023-11-21T04:24:02;7.70;65.20
1025;DHT22;501;48.214;11.350;2023-11-21T04:26:28;7.70;65.10
1025;DHT22;501;48.214;11.350;2023-11-21T04:28:54;7.70;65.10
1025;DHT22;501;48.214;11.350;2023-11-21T04:31:19;7.70;65.00
1025;DHT22;501;48.214;11.350;2023-11-21T04:33:45;7.70;65.00
1025;DHT22;501;48.214;11.350;2023-11-21T04:36:10;7.70;65.00
1025;DHT22;501;48.214;11.350;2023-11-21T04:38:36;7.60;64.90
1025;DHT22;501;48.214;11.350;2023-11-21T04:41:02;7.60;63.90
1025;DHT22;501;48.214;11.350;2023-11-21T04:43:27;7.60;64.70
1025;DHT22;501;48.214;11.350;2023-11-21T04:45:54;7.60;65.10
1025;DHT22;501;48.214;11.350;2023-11-21T04:48:20;7.60;65.90
1025;DHT22;501;48.214;11.350;2023-11-21T04:50:46;7.60;65.40
1025;DHT22;501;48.214;11.350;2023-11-21T04:53:11;7.50;65.40
1025;DHT22;501;48.214;11.350;2023-11-21T04:55:42;7.50;65.70
1025;DHT22;501;48.214;11.350;2023-11-21T04:58:08;7.50;66.50
1025;DHT22;501;48.214;11.350;2023-11-21T05:00:34;7.50;67.10
1025;DHT22;501;48.214;11.350;2023-11-21T05:02:59;7.50;67.00
1025;DHT22;501;48.214;11.350;2023-11-21T05:05:26;7.50;66.00
1025;DHT22;501;48.214;11.350;2023-11-21T05:07:52;7.50;64.80
1025;DHT22;501;48.214;11.350;2023-11-21T05:10:19;7.40;65.10
1025;DHT22;501;48.214;11.350;2023-11-21T05:12:45;7.40;64.70
1025;DHT22;501;48.214;11.350;2023-11-21T05:15:15;7.30;64.70
1025;DHT22;501;48.214;11.350;2023-11-21T05:17:41;7.30;65.00
1025;DHT22;501;48.214;11.350;2023-11-21T05:20:13;7.30;64.30
1025;DHT22;501;48.214;11.350;2023-11-21T05:22:43;7.30;64.60
1025;DHT22;501;48.214;11.350;2023-11-21T05:25:08;7.30;64.60
1025;DHT22;501;48.214;11.350;2023-11-21T05:27:35;7.30;64.70
1025;DHT22;501;48.214;11.350;2023-11-21T05:30:05;7.20;64.60
1025;DHT22;501;48.214;11.350;2023-11-21T05:32:31;7.20;65.30
1025;DHT22;501;48.214;11.350;2023-11-21T05:34:57;7.20;65.40
1025;DHT22;501;48.214;11.350;2023-11-21T05:37:23;7.20;64.50
1025;DHT22;501;48.214;11.350;2023-11-21T05:39:49;7.20;63.80
1025;DHT22;501;48.214;11.350;2023-11-21T05:42:15;7.20;64.50
1025;DHT22;501;48.214;11.350;2023-11-21T05:44:42;7.20;64.60
1025;DHT22;501;48.214;11.350;2023-11-21T05:47:11;7.20;64.60
1025;DHT22;501;48.214;11.350;2023-11-21T05:49:39;7.20;64.50
1025;DHT22;501;48.214;11.350;2023-11-21T05:52:05;7.20;63.40
1025;DHT22;501;48.214;11.350;2023-11-21T05:54:31;7.20;63.00
1025;DHT22;501;48.214;11.350;2023-11-21T05:56:56;7.20;62.70
1025;DHT22;501;48.214;11.350;2023-11-21T05:59:23;7.20;61.80
1025;DHT22;501;48.214;11.350;2023-11-21T06:01:48;7.10;62.30
1025;DHT22;501;48.214;11.350;2023-11-21T06:04:14;7.10;61.80
1025;DHT22;501;48.214;11.350;2023-11-21T06:06:40;7.10;62.20
1025;DHT22;501;48.214;11.350;2023-11-21T06:09:05;7.10;62.00
1025;DHT22;501;48.214;11.350;2023-11-21T06:11:34;7.10;63.50
1025;DHT22;501;48.214;11.350;2023-11-21T06:13:59;7.10;62.50
1025;DHT22;501;48.214;11.350;2023-11-21T06:16:25;7.10;62.60
1025;DHT22;501;48.214;11.350;2023-11-21T06:18:51;7.10;62.90
1025;DHT22;501;48.214;11.350;2023-11-21T06:21:16;7.10;63.30
1025;DHT22;501;48.214;11.350;2023-11-21T06:23:43;7.20;63.80
1025;DHT22;501;48.214;11.350;2023-11-21T06:26:09;7.20;63.90
1025;DHT22;501;48.214;11.350;2023-11-21T06:28:35;7.20;63.00
1025;DHT22;501;48.214;11.350;2023-11-21T06:31:02;7.20;63.30
1025;DHT22;501;48.214;11.350;2023-11-21T06:33:34;7.20;63.30
1025;DHT22;501;48.214;11.350;2023-11-21T06:36:00;7.10;62.60
1025;DHT22;501;48.214;11.350;2023-11-21T06:38:28;7.20;62.70
1025;DHT22;501;48.214;11.350;2023-11-21T06:40:58;7.20;62.40
1025;DHT22;501;48.214;11.350;2023-11-21T06:43:27;7.30;62.40
1025;DHT22;501;48.214;11.350;2023-11-21T06:45:52;7.30;60.60
1025;DHT22;501;48.214;11.350;2023-11-21T06:48:18;7.30;60.40
1025;DHT22;501;48.214;11.350;2023-11-21T06:50:44;7.20;59.40
1025;DHT22;501;48.214;11.350;2023-11-21T06:53:09;7.20;59.20
1025;DHT22;501;48.214;11.350;2023-11-21T06:55:35;7.30;60.70
1025;DHT22;501;48.214;11.350;2023-11-21T06:58:01;7.30;59.40
1025;DHT22;501;48.214;11.350;2023-11-21T07:00:26;7.30;58.90
1025;DHT22;501;48.214;11.350;2023-11-21T07:02:55;7.30;59.40
1025;DHT22;501;48.214;11.350;2023-11-21T07:05:21;7.30;59.70
1025;DHT22;501;48.214;11.350;2023-11-21T07:07:48;7.30;59.40
1025;DHT22;501;48.214;11.350;2023-11-21T07:10:14;7.30;56.70
1025;DHT22;501;48.214;11.350;2023-11-21T07:12:40;7.30;58.00
1025;DHT22;501;48.214;11.350;2023-11-21T07:15:06;7.40;58.60
1025;DHT22;501;48.214;11.350;2023-11-21T07:17:35;7.40;58.40
1025;DHT22;501;48.214;11.350;2023-11-21T07:20:01;7.40;58.90
1025;DHT22;501;48.214;11.350;2023-11-21T07:22:27;7.40;58.80
1025;DHT22;501;48.214;11.350;2023-11-21T07:24:53;7.40;58.60
1025;DHT22;501;48.214;11.350;2023-11-21T07:27:18;7.40;57.90
1025;DHT22;501;48.214;11.350;2023-11-21T07:29:44;7.50;57.90
1025;DHT22;501;48.214;11.350;2023-11-21T07:32:10;7.40;56.90
1025;DHT22;501;48.214;11.350;2023-11-21T07:34:36;7.40;57.40
1025;DHT22;501;48.214;11.350;2023-11-21T07:37:02;7.40;57.30
1025;DHT22;501;48.214;11.350;2023-11-21T07:39:29;7.40;56.70
1025;DHT22;501;48.214;11.350;2023-11-21T07:41:55;7.40;56.30
1025;DHT22;501;48.214;11.350;2023-11-21T07:44:23;7.40;56.30
1025;DHT22;501;48.214;11.350;2023-11-21T07:46:48;7.40;56.40
1025;DHT22;501;48.214;11.350;2023-11-21T07:49:15;7.40;56.30
1025;DHT22;501;48.214;11.350;2023-11-21T07:51:43;7.40;56.30
1025;DHT22;501;48.214;11.350;2023-11-21T07:54:09;7.40;57.40
1025;DHT22;501;48.214;11.350;2023-11-21T07:56:35;7.40;56.30
1025;DHT22;501;48.214;11.350;2023-11-21T07:59:01;7.40;56.30
1025;DHT22;501;48.214;11.350;2023-11-21T08:01:27;7.50;57.10
1025;DHT22;501;48.214;11.350;2023-11-21T08:03:54;7.50;57.30
1025;DHT22;501;48.214;11.350;2023-11-21T08:06:23;7.50;56.90
1025;DHT22;501;48.214;11.350;2023-11-21T08:08:49;7.60;56.50
1025;DHT22;501;48.214;11.350;2023-11-21T08:11:15;7.60;56.50
1025;DHT22;501;48.214;11.350;2023-11-21T08:13:40;7.60;55.90
1025;DHT22;501;48.214;11.350;2023-11-21T08:16:06;7.60;55.70
1025;DHT22;501;48.214;11.350;2023-11-21T08:18:32;7.70;56.00
1025;DHT22;501;48.214;11.350;2023-11-21T08:20:59;7.70;56.50
1025;DHT22;501;48.214;11.350;2023-11-21T08:23:26;7.70;56.60
1025;DHT22;501;48.214;11.350;2023-11-21T08:25:54;7.70;56.50
1025;DHT22;501;48.214;11.350;2023-11-21T08:28:21;7.70;56.60
1025;DHT22;501;48.214;11.350;2023-11-21T08:30:51;7.80;56.60
1025;DHT22;501;48.214;11.350;2023-11-21T08:33:18;7.80;56.60
1025;DHT22;501;48.214;11.350;2023-11-21T08:35:44;7.80;56.60
1025;DHT22;501;48.214;11.350;2023-11-21T08:38:09;7.80;56.20
1025;DHT22;501;48.214;11.350;2023-11-21T08:40:36;7.80;56.70
1025;DHT22;501;48.214;11.350;2023-11-21T08:43:01;7.90;57.30
1025;DHT22;501;48.214;11.350;2023-11-21T08:45:30;7.90;56.80
1025;DHT22;501;48.214;11.350;2023-11-21T08:47:56;8.00;56.80
1025;DHT22;501;48.214;11.350;2023-11-21T08:50:22;8.10;56.90
1025;DHT22;501;48.214;11.350;2023-11-21T08:52:47;8.20;56.20
1025;DHT22;501;48.214;11.350;2023-11-21T08:55:14;8.20;57.00
1025;DHT22;501;48.214;11.350;2023-11-21T08:57:40;8.30;56.40
1025;DHT22;501;48.214;11.350;2023-11-21T09:00:10;8.40;54.60
1025;DHT22;501;48.214;11.350;2023-11-21T09:02:37;8.40;54.10
1025;DHT22;501;48.214;11.350;2023-11-21T09:05:06;8.40;54.30
1025;DHT22;501;48.214;11.350;2023-11-21T09:07:32;8.40;54.30
1025;DHT22;501;48.214;11.350;2023-11-21T09:09:58;8.40;54.40
1025;DHT22;501;48.214;11.350;2023-11-21T09:12:24;8.40;54.30
1025;DHT22;501;48.214;11.350;2023-11-21T09:14:53;8.40;54.10
1025;DHT22;501;48.214;11.350;2023-11-21T09:17:19;8.50;54.90
1025;DHT22;501;48.214;11.350;2023-11-21T09:19:44;8.50;56.40
1025;DHT22;501;48.214;11.350;2023-11-21T09:22:15;8.50;57.20
1025;DHT22;501;48.214;11.350;2023-11-21T09:24:41;8.60;56.10
1025;DHT22;501;48.214;11.350;2023-11-21T09:27:08;8.60;55.30
1025;DHT22;501;48.214;11.350;2023-11-21T09:29:33;8.60;56.50
1025;DHT22;501;48.214;11.350;2023-11-21T09:31:59;8.60;54.40
1025;DHT22;501;48.214;11.350;2023-11-21T09:34:25;8.70;53.80
1025;DHT22;501;48.214;11.350;2023-11-21T09:36:51;8.70;54.70
1025;DHT22;501;48.214;11.350;2023-11-21T09:39:17;8.70;54.00
1025;DHT22;501;48.214;11.350;2023-11-21T09:41:49;8.70;53.80
1025;DHT22;501;48.214;11.350;2023-11-21T09:44:18;8.70;54.20
1025;DHT22;501;48.214;11.350;2023-11-21T09:46:47;8.70;54.50
1025;DHT22;501;48.214;11.350;2023-11-21T09:49:15;8.70;54.00
1025;DHT22;501;48.214;11.350;2023-11-21T09:51:47;8.70;54.60
1025;DHT22;501;48.214;11.350;2023-11-21T09:54:15;8.80;54.60
1025;DHT22;501;48.214;11.350;2023-11-21T09:56:41;8.80;54.70
1025;DHT22;501;48.214;11.350;2023-11-21T09:59:12;8.80;54.10
1025;DHT22;501;48.214;11.350;2023-11-21T10:01:38;8.80;54.90
1025;DHT22;501;48.214;11.350;2023-11-21T10:04:06;8.80;55.00
1025;DHT22;501;48.214;11.350;2023-11-21T10:06:41;8.90;55.40
1025;DHT22;501;48.214;11.350;2023-11-21T10:09:12;8.90;55.80
1025;DHT22;501;48.214;11.350;2023-11-21T10:11:41;8.90;56.00
1025;DHT22;501;48.214;11.350;2023-11-21T10:14:13;9.00;54.60
1025;DHT22;501;48.214;11.350;2023-11-21T10:16:40;9.00;53.80
1025;DHT22;501;48.214;11.350;2023-11-21T10:19:10;9.10;54.40
1025;DHT22;501;48.214;11.350;2023-11-21T10:21:36;9.20;53.50
1025;DHT22;501;48.214;11.350;2023-11-21T10:24:03;9.20;54.60
1025;DHT22;501;48.214;11.350;2023-11-21T10:26:28;9.40;54.70
1025;DHT22;501;48.214;11.350;2023-11-21T10:29:01;9.50;54.10
1025;DHT22;501;48.214;11.350;2023-11-21T10:31:32;9.60;53.00
1025;DHT22;501;48.214;11.350;2023-11-21T10:34:17;9.70;53.80
1025;DHT22;501;48.214;11.350;2023-11-21T10:36:44;9.80;49.80
1025;DHT22;501;48.214;11.350;2023-11-21T10:39:16;9.80;49.70
1025;DHT22;501;48.214;11.350;2023-11-21T10:41:46;9.90;49.90
1025;DHT22;501;48.214;11.350;2023-11-21T10:44:17;9.90;49.30
1025;DHT22;501;48.214;11.350;2023-11-21T10:46:50;10.00;48.40
1025;DHT22;501;48.214;11.350;2023-11-21T10:49:18;10.00;48.10
1025;DHT22;501;48.214;11.350;2023-11-21T10:51:44;10.10;48.50
1025;DHT22;501;48.214;11.350;2023-11-21T10:54:10;10.10;49.10
1025;DHT22;501;48.214;11.350;2023-11-21T10:56:36;10.20;48.20
1025;DHT22;501;48.214;11.350;2023-11-21T10:59:09;10.20;47.10
1025;DHT22;501;48.214;11.350;2023-11-21T11:01:36;10.20;46.40
1025;DHT22;501;48.214;11.350;2023-11-21T11:04:06;10.20;47.50
1025;DHT22;501;48.214;11.350;2023-11-21T11:06:34;10.30;47.60
1025;DHT22;501;48.214;11.350;2023-11-21T11:09:01;10.20;46.90
1025;DHT22;501;48.214;11.350;2023-11-21T11:11:29;10.20;47.10
1025;DHT22;501;48.214;11.350;2023-11-21T11:13:56;10.20;46.20
1025;DHT22;501;48.214;11.350;2023-11-21T11:16:26;10.10;46.60
1025;DHT22;501;48.214;11.350;2023-11-21T11:18:53;10.10;47.60
1025;DHT22;501;48.214;11.350;2023-11-21T11:21:27;10.10;47.90
1025;DHT22;501;48.214;11.350;2023-11-21T11:24:20;10.10;47.80
1025;DHT22;501;48.214;11.350;2023-11-21T11:29:59;10.20;46.80
1025;DHT22;501;48.214;11.350;2023-11-21T11:32:49;10.20;46.50
1025;DHT22;501;48.214;11.350;2023-11-21T11:35:30;10.20;47.00
1025;DHT22;501;48.214;11.350;2023-11-21T11:37:59;10.30;48.00
1025;DHT22;501;48.214;11.350;2023-11-21T11:40:41;10.30;47.40
1025;DHT22;501;48.214;11.350;2023-11-21T11:43:10;10.30;48.10
1025;DHT22;501;48.214;11.350;2023-11-21T11:45:35;10.30;48.30
1025;DHT22;501;48.214;11.350;2023-11-21T11:48:07;10.40;46.90
1025;DHT22;501;48.214;11.350;2023-11-21T11:50:33;10.40;46.90
1025;DHT22;501;48.214;11.350;2023-11-21T11:53:13;10.40;46.00
1025;DHT22;501;48.214;11.350;2023-11-21T11:55:39;10.30;47.00
1025;DHT22;501;48.214;11.350;2023-11-21T11:58:06;10.30;47.20
1025;DHT22;501;48.214;11.350;2023-11-21T12:03:01;10.30;47.60
1025;DHT22;501;48.214;11.350;2023-11-21T12:05:29;10.40;48.10
1025;DHT22;501;48.214;11.350;2023-11-21T12:08:03;10.40;46.90
1025;DHT22;501;48.214;11.350;2023-11-21T12:10:34;10.40;46.90
1025;DHT22;501;48.214;11.350;2023-11-21T12:13:03;10.30;46.40
1025;DHT22;501;48.214;11.350;2023-11-21T12:15:30;10.30;46.30
1025;DHT22;501;48.214;11.350;2023-11-21T12:17:57;10.20;45.20
1025;DHT22;501;48.214;11.350;2023-11-21T12:20:25;10.20;47.00
1025;DHT22;501;48.214;11.350;2023-11-21T12:22:55;10.20;46.10
1025;DHT22;501;48.214;11.350;2023-11-21T12:25:23;10.20;45.70
1025;DHT22;501;48.214;11.350;2023-11-21T12:27:50;10.20;45.10
1025;DHT22;501;48.214;11.350;2023-11-21T12:30:21;10.20;46.10
1025;DHT22;501;48.214;11.350;2023-11-21T12:32:52;10.30;45.60
1025;DHT22;501;48.214;11.350;2023-11-21T12:35:19;10.30;45.80
1025;DHT22;501;48.214;11.350;2023-11-21T12:37:45;10.30;45.40
1025;DHT22;501;48.214;11.350;2023-11-21T12:40:12;10.40;45.90
1025;DHT22;501;48.214;11.350;2023-11-21T12:42:42;10.40;45.20
1025;DHT22;501;48.214;11.350;2023-11-21T12:45:29;10.50;45.40
1025;DHT22;501;48.214;11.350;2023-11-21T12:47:59;10.50;45.50
1025;DHT22;501;48.214;11.350;2023-11-21T12:50:27;10.60;44.60
1025;DHT22;501;48.214;11.350;2023-11-21T12:53:01;10.60;43.00
1025;DHT22;501;48.214;11.350;2023-11-21T12:55:33;10.60;43.90
1025;DHT22;501;48.214;11.350;2023-11-21T12:58:03;10.60;44.60
1025;DHT22;501;48.214;11.350;2023-11-21T13:00:36;10.70;43.40
1025;DHT22;501;48.214;11.350;2023-11-21T13:03:08;10.70;43.70
1025;DHT22;501;48.214;11.350;2023-11-21T13:05:39;10.70;43.10
1025;DHT22;501;48.214;11.350;2023-11-21T13:08:10;10.70;42.40
1025;DHT22;501;48.214;11.350;2023-11-21T13:10:39;10.70;43.70
1025;DHT22;501;48.214;11.350;2023-11-21T13:13:09;10.70;43.30
1025;DHT22;501;48.214;11.350;2023-11-21T13:15:39;10.70;44.00
1025;DHT22;501;48.214;11.350;2023-11-21T13:18:06;10.60;44.60
1025;DHT22;501;48.214;11.350;2023-11-21T13:20:32;10.60;46.20
1025;DHT22;501;48.214;11.350;2023-11-21T13:22:59;10.50;46.90
1025;DHT22;501;48.214;11.350;2023-11-21T13:25:26;10.50;48.60
1025;DHT22;501;48.214;11.350;2023-11-21T13:27:55;10.50;49.50
1025;DHT22;501;48.214;11.350;2023-11-21T13:30:22;10.60;49.50
1025;DHT22;501;48.214;11.350;2023-11-21T13:32:59;10.70;49.20
1025;DHT22;501;48.214;11.350;2023-11-21T13:35:31;10.70;49.20
1025;DHT22;501;48.214;11.350;2023-11-21T13:38:13;10.70;48.00
1025;DHT22;501;48.214;11.350;2023-11-21T13:40:40;10.50;43.60
1025;DHT22;501;48.214;11.350;2023-11-21T13:43:10;10.20;44.80
1025;DHT22;501;48.214;11.350;2023-11-21T13:45:37;10.00;45.00
1025;DHT22;501;48.214;11.350;2023-11-21T13:48:05;9.70;48.30
1025;DHT22;501;48.214;11.350;2023-11-21T13:50:38;9.50;50.40
1025;DHT22;501;48.214;11.350;2023-11-21T13:53:04;9.40;52.50
1025;DHT22;501;48.214;11.350;2023-11-21T13:55:48;9.30;53.50
1025;DHT22;501;48.214;11.350;2023-11-21T13:58:15;9.20;55.40
1025;DHT22;501;48.214;11.350;2023-11-21T14:00:45;9.20;57.30
1025;DHT22;501;48.214;11.350;2023-11-21T14:03:12;9.20;56.70
1025;DHT22;501;48.214;11.350;2023-11-21T14:05:47;9.20;57.90
1025;DHT22;501;48.214;11.350;2023-11-21T14:08:22;9.20;56.80
1025;DHT22;501;48.214;11.350;2023-11-21T14:10:54;9.10;56.90
1025;DHT22;501;48.214;11.350;2023-11-21T14:13:29;9.20;57.70
1025;DHT22;501;48.214;11.350;2023-11-21T14:15:55;9.20;57.50
1025;DHT22;501;48.214;11.350;2023-11-21T14:18:25;9.20;57.80
1025;DHT22;501;48.214;11.350;2023-11-21T14:20:56;9.20;57.80
1025;DHT22;501;48.214;11.350;2023-11-21T14:23:21;9.20;56.10
1025;DHT22;501;48.214;11.350;2023-11-21T14:25:49;9.20;56.20
1025;DHT22;501;48.214;11.350;2023-11-21T14:28:16;9.20;55.70
1025;DHT22;501;48.214;11.350;2023-11-21T14:30:42;9.20;56.40
1025;DHT22;501;48.214;11.350;2023-11-21T14:33:08;9.30;58.70
1025;DHT22;501;48.214;11.350;2023-11-21T14:35:35;9.40;59.40
1025;DHT22;501;48.214;11.350;2023-11-21T14:38:02;9.40;59.50
1025;DHT22;501;48.214;11.350;2023-11-21T14:40:30;9.40;58.00
1025;DHT22;501;48.214;11.350;2023-11-21T14:43:00;9.50;56.90
1025;DHT22;501;48.214;11.350;2023-11-21T14:45:26;9.40;57.20
1025;DHT22;501;48.214;11.350;2023-11-21T14:47:52;9.40;57.30
1025;DHT22;501;48.214;11.350;2023-11-21T14:50:30;9.40;57.00
1025;DHT22;501;48.214;11.350;2023-11-21T14:53:12;9.40;56.80
1025;DHT22;501;48.214;11.350;2023-11-21T14:55:41;9.30;57.10
1025;DHT22;501;48.214;11.350;2023-11-21T14:58:16;9.30;57.60
1025;DHT22;501;48.214;11.350;2023-11-21T15:00:49;9.30;58.60
1025;DHT22;501;48.214;11.350;2023-11-21T15:03:17;9.20;59.70
1025;DHT22;501;48.214;11.350;2023-11-21T15:06:02;9.20;60.30
1025;DHT22;501;48.214;11.350;2023-11-21T15:08:54;9.20;61.30
1025;DHT22;501;48.214;11.350;2023-11-21T15:11:44;9.20;62.20
1025;DHT22;501;48.214;11.350;2023-11-21T15:14:10;9.20;62.30
1025;DHT22;501;48.214;11.350;2023-11-21T15:16:38;9.20;62.40
1025;DHT22;501;48.214;11.350;2023-11-21T15:19:07;9.20;62.40
1025;DHT22;501;48.214;11.350;2023-11-21T15:21:35;9.20;62.40
1025;DHT22;501;48.214;11.350;2023-11-21T15:24:01;9.10;62.50
1025;DHT22;501;48.214;11.350;2023-11-21T15:26:28;9.10;63.30
1025;DHT22;501;48.214;11.350;2023-11-21T15:28:54;9.10;63.80
1025;DHT22;501;48.214;11.350;2023-11-21T15:31:19;9.10;63.50
1025;DHT22;501;48.214;11.350;2023-11-21T15:33:53;9.10;62.70
1025;DHT22;501;48.214;11.350;2023-11-21T15:36:19;9.10;59.80
1025;DHT22;501;48.214;11.350;2023-11-21T15:38:45;9.00;59.50
1025;DHT22;501;48.214;11.350;2023-11-21T15:41:11;8.90;60.30
1025;DHT22;501;48.214;11.350;2023-11-21T15:43:37;8.80;58.30
1025;DHT22;501;48.214;11.350;2023-11-21T15:46:03;8.70;58.20
1025;DHT22;501;48.214;11.350;2023-11-21T15:48:34;8.50;60.00
1025;DHT22;501;48.214;11.350;2023-11-21T15:51:00;8.40;61.00
1025;DHT22;501;48.214;11.350;2023-11-21T15:53:28;8.40;62.00
1025;DHT22;501;48.214;11.350;2023-11-21T15:55:53;8.30;63.60
1025;DHT22;501;48.214;11.350;2023-11-21T15:58:19;8.30;65.50
1025;DHT22;501;48.214;11.350;2023-11-21T16:00:45;8.20;67.00
1025;DHT22;501;48.214;11.350;2023-11-21T16:03:10;8.20;68.30
1025;DHT22;501;48.214;11.350;2023-11-21T16:05:37;8.30;68.50
1025;DHT22;501;48.214;11.350;2023-11-21T16:08:03;8.20;67.90
1025;DHT22;501;48.214;11.350;2023-11-21T16:10:29;8.20;67.50
1025;DHT22;501;48.214;11.350;2023-11-21T16:12:54;8.20;65.50
1025;DHT22;501;48.214;11.350;2023-11-21T16:15:20;8.20;66.10
1025;DHT22;501;48.214;11.350;2023-11-21T16:17:46;8.20;65.60
1025;DHT22;501;48.214;11.350;2023-11-21T16:20:11;8.20;65.40
1025;DHT22;501;48.214;11.350;2023-11-21T16:22:40;8.20;65.50